sensor_id;sensor_type;location;lat;lon;timestamp;P1;durP1;ratioP1;P2;durP2;ratioP2
57790;SDS011;43621;51.798;21.588;2023-02-15T00:03:26;56.90;;;26.30;;
57790;SDS011;43621;51.798;21.588;2023-02-15T00:07:28;41.90;;;22.00;;
57790;SDS011;43621;51.798;21.588;2023-02-15T00:11:30;41.20;;;22.90;;
57790;SDS011;43621;51.798;21.588;2023-02-15T00:15:42;67.60;;;32.90;;
57790;SDS011;43621;51.798;21.588;2023-02-15T00:19:44;61.60;;;29.30;;
57790;SDS011;43621;51.798;21.588;2023-02-15T00:23:45;49.70;;;25.30;;
57790;SDS011;43621;51.798;21.588;2023-02-15T00:27:47;44.80;;;23.20;;
57790;SDS011;43621;51.798;21.588;2023-02-15T00:31:49;61.20;;;28.90;;
57790;SDS011;43621;51.798;21.588;2023-02-15T00:35:56;47.80;;;25.20;;
57790;SDS011;43621;51.798;21.588;2023-02-15T00:39:59;48.00;;;26.10;;
57790;SDS011;43621;51.798;21.588;2023-02-15T00:44:01;41.90;;;22.50;;
57790;SDS011;43621;51.798;21.588;2023-02-15T00:48:04;43.40;;;22.80;;
57790;SDS011;43621;51.798;21.588;2023-02-15T00:52:05;48.80;;;23.40;;
57790;SDS011;43621;51.798;21.588;2023-02-15T00:56:07;46.00;;;22.80;;
57790;SDS011;43621;51.798;21.588;2023-02-15T01:00:10;40.30;;;21.60;;
57790;SDS011;43621;51.798;21.588;2023-02-15T01:04:12;44.00;;;21.60;;
57790;SDS011;43621;51.798;21.588;2023-02-15T01:08:14;42.80;;;22.50;;
57790;SDS011;43621;51.798;21.588;2023-02-15T01:12:18;37.60;;;19.90;;
57790;SDS011;43621;51.798;21.588;2023-02-15T01:16:22;43.90;;;21.70;;
57790;SDS011;43621;51.798;21.588;2023-02-15T01:20:26;44.80;;;22.90;;
57790;SDS011;43621;51.798;21.588;2023-02-15T01:24:30;45.60;;;22.90;;
57790;SDS011;43621;51.798;21.588;2023-02-15T01:28:32;45.20;;;21.80;;
57790;SDS011;43621;51.798;21.588;2023-02-15T01:32:34;45.80;;;22.20;;
57790;SDS011;43621;51.798;21.588;2023-02-15T01:36:36;43.70;;;20.50;;
57790;SDS011;43621;51.798;21.588;2023-02-15T01:40:38;40.50;;;20.50;;
57790;SDS011;43621;51.798;21.588;2023-02-15T01:44:48;40.70;;;20.10;;
57790;SDS011;43621;51.798;21.588;2023-02-15T01:49:02;45.10;;;22.00;;
57790;SDS011;43621;51.798;21.588;2023-02-15T01:53:15;41.90;;;22.30;;
57790;SDS011;43621;51.798;21.588;2023-02-15T01:57:23;39.50;;;21.90;;
57790;SDS011;43621;51.798;21.588;2023-02-15T02:01:29;44.40;;;22.90;;
57790;SDS011;43621;51.798;21.588;2023-02-15T02:05:31;44.90;;;22.30;;
57790;SDS011;43621;51.798;21.588;2023-02-15T02:09:34;45.50;;;21.50;;
57790;SDS011;43621;51.798;21.588;2023-02-15T02:13:37;41.40;;;20.90;;
57790;SDS011;43621;51.798;21.588;2023-02-15T02:17:48;39.40;;;19.80;;
57790;SDS011;43621;51.798;21.588;2023-02-15T02:44:43;40.10;;;20.00;;
57790;SDS011;43621;51.798;21.588;2023-02-15T02:48:48;38.20;;;20.60;;
57790;SDS011;43621;51.798;21.588;2023-02-15T02:52:51;48.90;;;23.80;;
57790;SDS011;43621;51.798;21.588;2023-02-15T02:56:54;51.80;;;22.00;;
57790;SDS011;43621;51.798;21.588;2023-02-15T03:01:03;46.40;;;22.00;;
57790;SDS011;43621;51.798;21.588;2023-02-15T03:05:11;45.60;;;21.20;;
57790;SDS011;43621;51.798;21.588;2023-02-15T03:09:21;37.00;;;18.70;;
57790;SDS011;43621;51.798;21.588;2023-02-15T03:13:35;37.70;;;19.80;;
57790;SDS011;43621;51.798;21.588;2023-02-15T03:17:40;42.80;;;21.10;;
57790;SDS011;43621;51.798;21.588;2023-02-15T03:21:47;42.30;;;21.60;;
57790;SDS011;43621;51.798;21.588;2023-02-15T03:26:00;37.70;;;19.80;;
57790;SDS011;43621;51.798;21.588;2023-02-15T03:30:05;37.60;;;18.60;;
57790;SDS011;43621;51.798;21.588;2023-02-15T03:34:10;40.60;;;19.80;;
57790;SDS011;43621;51.798;21.588;2023-02-15T03:38:16;45.80;;;22.00;;
57790;SDS011;43621;51.798;21.588;2023-02-15T03:42:26;41.60;;;19.20;;
57790;SDS011;43621;51.798;21.588;2023-02-15T03:47:15;40.70;;;18.90;;
57790;SDS011;43621;51.798;21.588;2023-02-15T03:51:09;39.60;;;17.80;;
57790;SDS011;43621;51.798;21.588;2023-02-15T03:55:35;35.50;;;17.50;;
57790;SDS011;43621;51.798;21.588;2023-02-15T03:59:38;36.80;;;18.70;;
57790;SDS011;43621;51.798;21.588;2023-02-15T04:04:01;37.10;;;17.50;;
57790;SDS011;43621;51.798;21.588;2023-02-15T04:08:09;39.30;;;18.60;;
57790;SDS011;43621;51.798;21.588;2023-02-15T04:12:11;40.70;;;18.90;;
57790;SDS011;43621;51.798;21.588;2023-02-15T04:16:13;44.10;;;20.90;;
57790;SDS011;43621;51.798;21.588;2023-02-15T04:20:15;41.00;;;19.10;;
57790;SDS011;43621;51.798;21.588;2023-02-15T04:24:36;36.30;;;16.90;;
57790;SDS011;43621;51.798;21.588;2023-02-15T04:28:56;38.80;;;18.60;;
57790;SDS011;43621;51.798;21.588;2023-02-15T04:32:58;41.10;;;19.00;;
57790;SDS011;43621;51.798;21.588;2023-02-15T04:37:00;42.30;;;20.60;;
57790;SDS011;43621;51.798;21.588;2023-02-15T04:41:02;49.60;;;22.90;;
57790;SDS011;43621;51.798;21.588;2023-02-15T04:45:05;60.30;;;25.90;;
57790;SDS011;43621;51.798;21.588;2023-02-15T04:49:07;64.50;;;29.30;;
57790;SDS011;43621;51.798;21.588;2023-02-15T04:53:10;53.60;;;25.70;;
57790;SDS011;43621;51.798;21.588;2023-02-15T04:57:13;61.20;;;27.10;;
57790;SDS011;43621;51.798;21.588;2023-02-15T05:01:15;52.90;;;23.80;;
57790;SDS011;43621;51.798;21.588;2023-02-15T05:05:17;41.90;;;21.10;;
57790;SDS011;43621;51.798;21.588;2023-02-15T05:09:19;40.70;;;20.00;;
57790;SDS011;43621;51.798;21.588;2023-02-15T05:13:20;48.30;;;21.00;;
57790;SDS011;43621;51.798;21.588;2023-02-15T05:17:22;39.70;;;20.20;;
57790;SDS011;43621;51.798;21.588;2023-02-15T05:21:24;44.70;;;20.80;;
57790;SDS011;43621;51.798;21.588;2023-02-15T05:25:27;45.10;;;20.50;;
57790;SDS011;43621;51.798;21.588;2023-02-15T05:29:47;39.90;;;17.80;;
57790;SDS011;43621;51.798;21.588;2023-02-15T05:33:49;37.30;;;18.80;;
57790;SDS011;43621;51.798;21.588;2023-02-15T05:37:51;44.80;;;20.30;;
57790;SDS011;43621;51.798;21.588;2023-02-15T05:41:53;43.40;;;21.30;;
57790;SDS011;43621;51.798;21.588;2023-02-15T05:45:55;38.50;;;19.20;;
57790;SDS011;43621;51.798;21.588;2023-02-15T05:49:57;41.80;;;17.30;;
57790;SDS011;43621;51.798;21.588;2023-02-15T05:53:59;37.30;;;17.90;;
57790;SDS011;43621;51.798;21.588;2023-02-15T05:58:01;38.90;;;18.30;;
57790;SDS011;43621;51.798;21.588;2023-02-15T06:02:02;44.30;;;20.80;;
57790;SDS011;43621;51.798;21.588;2023-02-15T06:06:05;35.10;;;18.30;;
57790;SDS011;43621;51.798;21.588;2023-02-15T06:10:08;37.70;;;18.20;;
57790;SDS011;43621;51.798;21.588;2023-02-15T06:14:10;37.90;;;16.30;;
57790;SDS011;43621;51.798;21.588;2023-02-15T06:18:12;42.90;;;16.50;;
57790;SDS011;43621;51.798;21.588;2023-02-15T06:22:14;39.40;;;18.10;;
57790;SDS011;43621;51.798;21.588;2023-02-15T06:26:16;36.60;;;16.60;;
57790;SDS011;43621;51.798;21.588;2023-02-15T06:30:18;33.60;;;15.50;;
57790;SDS011;43621;51.798;21.588;2023-02-15T06:34:20;36.40;;;16.30;;
57790;SDS011;43621;51.798;21.588;2023-02-15T06:38:22;40.50;;;16.90;;
57790;SDS011;43621;51.798;21.588;2023-02-15T06:42:24;38.50;;;17.60;;
57790;SDS011;43621;51.798;21.588;2023-02-15T06:46:26;40.90;;;17.70;;
57790;SDS011;43621;51.798;21.588;2023-02-15T06:50:29;28.60;;;13.60;;
57790;SDS011;43621;51.798;21.588;2023-02-15T06:54:31;31.00;;;16.20;;
57790;SDS011;43621;51.798;21.588;2023-02-15T06:58:33;36.20;;;14.30;;
57790;SDS011;43621;51.798;21.588;2023-02-15T07:02:35;34.60;;;15.30;;
57790;SDS011;43621;51.798;21.588;2023-02-15T07:06:37;27.70;;;12.70;;
57790;SDS011;43621;51.798;21.588;2023-02-15T07:10:42;24.90;;;12.10;;
57790;SDS011;43621;51.798;21.588;2023-02-15T07:14:45;24.20;;;10.80;;
57790;SDS011;43621;51.798;21.588;2023-02-15T07:18:47;24.30;;;12.00;;
57790;SDS011;43621;51.798;21.588;2023-02-15T07:22:49;21.40;;;10.80;;
57790;SDS011;43621;51.798;21.588;2023-02-15T07:26:52;22.50;;;10.20;;
57790;SDS011;43621;51.798;21.588;2023-02-15T07:30:54;20.10;;;10.20;;
57790;SDS011;43621;51.798;21.588;2023-02-15T07:34:56;19.60;;;9.50;;
57790;SDS011;43621;51.798;21.588;2023-02-15T07:38:58;28.40;;;12.20;;
57790;SDS011;43621;51.798;21.588;2023-02-15T07:43:00;24.60;;;11.30;;
57790;SDS011;43621;51.798;21.588;2023-02-15T07:47:02;22.80;;;10.80;;
57790;SDS011;43621;51.798;21.588;2023-02-15T07:51:04;21.00;;;10.00;;
57790;SDS011;43621;51.798;21.588;2023-02-15T07:55:08;21.70;;;10.60;;
57790;SDS011;43621;51.798;21.588;2023-02-15T07:59:10;24.40;;;10.50;;
57790;SDS011;43621;51.798;21.588;2023-02-15T08:03:12;22.10;;;10.00;;
57790;SDS011;43621;51.798;21.588;2023-02-15T08:07:17;22.70;;;9.90;;
57790;SDS011;43621;51.798;21.588;2023-02-15T08:11:19;19.60;;;9.90;;
57790;SDS011;43621;51.798;21.588;2023-02-15T08:15:37;22.60;;;11.20;;
57790;SDS011;43621;51.798;21.588;2023-02-15T08:19:39;24.90;;;12.40;;
57790;SDS011;43621;51.798;21.588;2023-02-15T08:23:41;38.20;;;16.60;;
57790;SDS011;43621;51.798;21.588;2023-02-15T08:27:43;45.60;;;22.20;;
57790;SDS011;43621;51.798;21.588;2023-02-15T08:31:45;29.50;;;15.00;;
57790;SDS011;43621;51.798;21.588;2023-02-15T08:35:47;36.20;;;17.50;;
57790;SDS011;43621;51.798;21.588;2023-02-15T08:39:49;29.30;;;15.30;;
57790;SDS011;43621;51.798;21.588;2023-02-15T08:43:52;31.00;;;14.60;;
57790;SDS011;43621;51.798;21.588;2023-02-15T08:47:55;36.90;;;16.80;;
57790;SDS011;43621;51.798;21.588;2023-02-15T08:51:57;35.40;;;17.20;;
57790;SDS011;43621;51.798;21.588;2023-02-15T08:55:59;42.20;;;19.50;;
57790;SDS011;43621;51.798;21.588;2023-02-15T09:00:02;42.40;;;21.70;;
57790;SDS011;43621;51.798;21.588;2023-02-15T09:04:06;32.50;;;14.40;;
57790;SDS011;43621;51.798;21.588;2023-02-15T09:08:15;38.80;;;17.30;;
57790;SDS011;43621;51.798;21.588;2023-02-15T09:12:17;37.90;;;17.10;;
57790;SDS011;43621;51.798;21.588;2023-02-15T09:16:23;38.10;;;18.00;;
57790;SDS011;43621;51.798;21.588;2023-02-15T09:20:27;38.80;;;18.60;;
57790;SDS011;43621;51.798;21.588;2023-02-15T09:24:33;54.20;;;21.00;;
57790;SDS011;43621;51.798;21.588;2023-02-15T09:28:35;50.10;;;21.90;;
57790;SDS011;43621;51.798;21.588;2023-02-15T09:32:37;87.60;;;42.90;;
57790;SDS011;43621;51.798;21.588;2023-02-15T09:36:40;38.30;;;16.70;;
57790;SDS011;43621;51.798;21.588;2023-02-15T09:40:44;43.60;;;19.90;;
57790;SDS011;43621;51.798;21.588;2023-02-15T09:54:32;52.00;;;22.30;;
57790;SDS011;43621;51.798;21.588;2023-02-15T10:07:26;53.30;;;23.50;;
57790;SDS011;43621;51.798;21.588;2023-02-15T10:11:44;63.40;;;29.60;;
57790;SDS011;43621;51.798;21.588;2023-02-15T10:25:21;52.90;;;25.30;;
57790;SDS011;43621;51.798;21.588;2023-02-15T10:29:07;46.80;;;23.90;;
57790;SDS011;43621;51.798;21.588;2023-02-15T10:38:00;43.20;;;20.10;;
57790;SDS011;43621;51.798;21.588;2023-02-15T10:42:25;42.90;;;19.20;;
57790;SDS011;43621;51.798;21.588;2023-02-15T10:46:40;50.40;;;23.10;;
57790;SDS011;43621;51.798;21.588;2023-02-15T11:00:26;57.60;;;27.00;;
57790;SDS011;43621;51.798;21.588;2023-02-15T11:09:07;44.30;;;19.90;;
57790;SDS011;43621;51.798;21.588;2023-02-15T11:13:16;50.40;;;22.80;;
57790;SDS011;43621;51.798;21.588;2023-02-15T11:17:25;53.20;;;25.80;;
57790;SDS011;43621;51.798;21.588;2023-02-15T11:21:37;62.20;;;31.80;;
57790;SDS011;43621;51.798;21.588;2023-02-15T11:25:46;54.00;;;27.00;;
57790;SDS011;43621;51.798;21.588;2023-02-15T11:30:04;61.70;;;27.30;;
57790;SDS011;43621;51.798;21.588;2023-02-15T11:34:17;64.40;;;29.60;;
57790;SDS011;43621;51.798;21.588;2023-02-15T11:38:31;73.40;;;32.30;;
57790;SDS011;43621;51.798;21.588;2023-02-15T11:42:35;56.00;;;27.10;;
57790;SDS011;43621;51.798;21.588;2023-02-15T11:46:37;51.30;;;25.60;;
57790;SDS011;43621;51.798;21.588;2023-02-15T11:50:40;43.80;;;20.70;;
57790;SDS011;43621;51.798;21.588;2023-02-15T11:54:48;55.30;;;24.20;;
57790;SDS011;43621;51.798;21.588;2023-02-15T11:58:59;238.30;;;125.90;;
57790;SDS011;43621;51.798;21.588;2023-02-15T12:03:42;59.60;;;29.70;;
57790;SDS011;43621;51.798;21.588;2023-02-15T12:16:28;73.70;;;35.50;;
57790;SDS011;43621;51.798;21.588;2023-02-15T12:20:34;113.60;;;50.60;;
57790;SDS011;43621;51.798;21.588;2023-02-15T12:24:43;79.50;;;32.90;;
57790;SDS011;43621;51.798;21.588;2023-02-15T12:28:48;60.70;;;27.70;;
57790;SDS011;43621;51.798;21.588;2023-02-15T12:32:54;68.80;;;33.70;;
57790;SDS011;43621;51.798;21.588;2023-02-15T12:37:02;57.40;;;28.70;;
57790;SDS011;43621;51.798;21.588;2023-02-15T12:41:23;94.40;;;52.00;;
57790;SDS011;43621;51.798;21.588;2023-02-15T12:49:32;103.30;;;53.20;;
57790;SDS011;43621;51.798;21.588;2023-02-15T12:53:38;110.80;;;54.00;;
57790;SDS011;43621;51.798;21.588;2023-02-15T12:57:40;98.90;;;47.60;;
57790;SDS011;43621;51.798;21.588;2023-02-15T13:01:44;67.60;;;32.00;;
57790;SDS011;43621;51.798;21.588;2023-02-15T13:05:50;57.10;;;29.50;;
57790;SDS011;43621;51.798;21.588;2023-02-15T13:09:54;52.20;;;24.00;;
57790;SDS011;43621;51.798;21.588;2023-02-15T13:14:00;43.90;;;19.80;;
57790;SDS011;43621;51.798;21.588;2023-02-15T13:18:04;47.10;;;21.60;;
57790;SDS011;43621;51.798;21.588;2023-02-15T13:22:19;65.30;;;32.40;;
57790;SDS011;43621;51.798;21.588;2023-02-15T13:26:25;91.50;;;42.90;;
57790;SDS011;43621;51.798;21.588;2023-02-15T13:30:42;63.30;;;29.00;;
57790;SDS011;43621;51.798;21.588;2023-02-15T13:34:47;48.00;;;22.80;;
57790;SDS011;43621;51.798;21.588;2023-02-15T13:48:37;89.10;;;43.70;;
57790;SDS011;43621;51.798;21.588;2023-02-15T13:52:23;74.20;;;36.00;;
57790;SDS011;43621;51.798;21.588;2023-02-15T14:18:34;73.20;;;42.60;;
57790;SDS011;43621;51.798;21.588;2023-02-15T14:26:59;66.40;;;32.30;;
57790;SDS011;43621;51.798;21.588;2023-02-15T14:31:37;82.60;;;40.50;;
57790;SDS011;43621;51.798;21.588;2023-02-15T14:35:44;76.30;;;39.30;;
57790;SDS011;43621;51.798;21.588;2023-02-15T14:39:57;84.30;;;51.30;;
57790;SDS011;43621;51.798;21.588;2023-02-15T14:44:29;57.00;;;28.60;;
57790;SDS011;43621;51.798;21.588;2023-02-15T14:48:47;71.40;;;39.20;;
57790;SDS011;43621;51.798;21.588;2023-02-15T14:57:31;72.40;;;33.90;;
57790;SDS011;43621;51.798;21.588;2023-02-15T15:01:35;67.50;;;30.60;;
57790;SDS011;43621;51.798;21.588;2023-02-15T15:05:46;68.00;;;32.70;;
57790;SDS011;43621;51.798;21.588;2023-02-15T15:10:32;67.40;;;28.90;;
57790;SDS011;43621;51.798;21.588;2023-02-15T15:14:38;62.50;;;33.40;;
57790;SDS011;43621;51.798;21.588;2023-02-15T15:18:45;80.80;;;37.60;;
57790;SDS011;43621;51.798;21.588;2023-02-15T15:22:49;75.30;;;32.00;;
57790;SDS011;43621;51.798;21.588;2023-02-15T15:27:18;61.50;;;26.70;;
57790;SDS011;43621;51.798;21.588;2023-02-15T15:49:21;64.50;;;31.40;;
57790;SDS011;43621;51.798;21.588;2023-02-15T15:53:29;74.90;;;33.30;;
57790;SDS011;43621;51.798;21.588;2023-02-15T15:57:39;74.30;;;33.80;;
57790;SDS011;43621;51.798;21.588;2023-02-15T16:01:44;94.30;;;47.60;;
57790;SDS011;43621;51.798;21.588;2023-02-15T16:05:47;105.60;;;48.00;;
57790;SDS011;43621;51.798;21.588;2023-02-15T16:14:04;145.90;;;59.40;;
57790;SDS011;43621;51.798;21.588;2023-02-15T16:18:18;125.40;;;58.40;;
57790;SDS011;43621;51.798;21.588;2023-02-15T16:30:54;104.80;;;47.20;;
57790;SDS011;43621;51.798;21.588;2023-02-15T16:35:13;141.30;;;68.50;;
57790;SDS011;43621;51.798;21.588;2023-02-15T16:39:19;283.90;;;160.70;;
57790;SDS011;43621;51.798;21.588;2023-02-15T16:43:23;125.60;;;59.20;;
57790;SDS011;43621;51.798;21.588;2023-02-15T16:47:28;154.30;;;70.70;;
57790;SDS011;43621;51.798;21.588;2023-02-15T16:51:34;152.10;;;65.80;;
57790;SDS011;43621;51.798;21.588;2023-02-15T16:55:38;222.60;;;98.00;;
57790;SDS011;43621;51.798;21.588;2023-02-15T16:59:44;128.70;;;57.70;;
57790;SDS011;43621;51.798;21.588;2023-02-15T17:03:49;155.70;;;73.80;;
57790;SDS011;43621;51.798;21.588;2023-02-15T17:17:05;250.80;;;99.90;;
57790;SDS011;43621;51.798;21.588;2023-02-15T17:21:10;267.60;;;111.40;;
57790;SDS011;43621;51.798;21.588;2023-02-15T17:25:23;218.70;;;95.40;;
57790;SDS011;43621;51.798;21.588;2023-02-15T17:29:31;186.60;;;81.90;;
57790;SDS011;43621;51.798;21.588;2023-02-15T17:33:37;206.60;;;84.70;;
57790;SDS011;43621;51.798;21.588;2023-02-15T17:41:42;261.00;;;117.10;;
57790;SDS011;43621;51.798;21.588;2023-02-15T17:45:46;253.40;;;114.40;;
57790;SDS011;43621;51.798;21.588;2023-02-15T17:49:50;175.90;;;83.20;;
57790;SDS011;43621;51.798;21.588;2023-02-15T17:53:52;141.20;;;72.90;;
57790;SDS011;43621;51.798;21.588;2023-02-15T17:58:13;146.10;;;66.20;;
57790;SDS011;43621;51.798;21.588;2023-02-15T18:02:17;126.30;;;57.20;;
57790;SDS011;43621;51.798;21.588;2023-02-15T18:06:39;110.00;;;48.70;;
57790;SDS011;43621;51.798;21.588;2023-02-15T18:11:01;117.50;;;48.20;;
57790;SDS011;43621;51.798;21.588;2023-02-15T18:15:22;108.30;;;46.00;;
57790;SDS011;43621;51.798;21.588;2023-02-15T18:19:25;113.50;;;50.60;;
57790;SDS011;43621;51.798;21.588;2023-02-15T18:23:31;125.70;;;57.50;;
57790;SDS011;43621;51.798;21.588;2023-02-15T18:27:33;137.60;;;62.40;;
57790;SDS011;43621;51.798;21.588;2023-02-15T18:31:36;160.40;;;61.30;;
57790;SDS011;43621;51.798;21.588;2023-02-15T18:35:39;184.00;;;66.30;;
57790;SDS011;43621;51.798;21.588;2023-02-15T18:39:42;136.90;;;61.00;;
57790;SDS011;43621;51.798;21.588;2023-02-15T18:43:47;181.70;;;71.50;;
57790;SDS011;43621;51.798;21.588;2023-02-15T18:47:50;158.60;;;60.60;;
57790;SDS011;43621;51.798;21.588;2023-02-15T18:51:52;241.40;;;76.80;;
57790;SDS011;43621;51.798;21.588;2023-02-15T18:55:54;395.40;;;119.20;;
57790;SDS011;43621;51.798;21.588;2023-02-15T18:59:56;748.50;;;230.30;;
57790;SDS011;43621;51.798;21.588;2023-02-15T19:03:59;278.40;;;87.70;;
57790;SDS011;43621;51.798;21.588;2023-02-15T19:08:02;474.40;;;150.90;;
57790;SDS011;43621;51.798;21.588;2023-02-15T19:12:07;178.40;;;69.90;;
57790;SDS011;43621;51.798;21.588;2023-02-15T19:16:30;258.40;;;99.30;;
57790;SDS011;43621;51.798;21.588;2023-02-15T19:20:36;193.40;;;69.50;;
57790;SDS011;43621;51.798;21.588;2023-02-15T19:24:39;162.10;;;61.20;;
57790;SDS011;43621;51.798;21.588;2023-02-15T19:28:44;169.40;;;66.90;;
57790;SDS011;43621;51.798;21.588;2023-02-15T19:32:47;181.70;;;77.40;;
57790;SDS011;43621;51.798;21.588;2023-02-15T19:36:50;165.30;;;73.20;;
57790;SDS011;43621;51.798;21.588;2023-02-15T19:40:54;138.20;;;60.60;;
57790;SDS011;43621;51.798;21.588;2023-02-15T19:45:13;135.80;;;58.00;;
57790;SDS011;43621;51.798;21.588;2023-02-15T19:49:16;161.00;;;70.90;;
57790;SDS011;43621;51.798;21.588;2023-02-15T19:53:22;207.80;;;95.40;;
57790;SDS011;43621;51.798;21.588;2023-02-15T19:57:25;311.20;;;125.20;;
57790;SDS011;43621;51.798;21.588;2023-02-15T20:01:29;576.90;;;233.10;;
57790;SDS011;43621;51.798;21.588;2023-02-15T20:05:31;251.00;;;106.90;;
57790;SDS011;43621;51.798;21.588;2023-02-15T20:09:39;234.00;;;104.40;;
57790;SDS011;43621;51.798;21.588;2023-02-15T20:13:42;308.30;;;115.00;;
57790;SDS011;43621;51.798;21.588;2023-02-15T20:17:44;274.50;;;110.10;;
57790;SDS011;43621;51.798;21.588;2023-02-15T20:21:46;174.00;;;73.10;;
57790;SDS011;43621;51.798;21.588;2023-02-15T20:25:58;132.50;;;55.90;;
57790;SDS011;43621;51.798;21.588;2023-02-15T20:30:02;139.40;;;56.60;;
57790;SDS011;43621;51.798;21.588;2023-02-15T20:34:04;138.50;;;59.10;;
57790;SDS011;43621;51.798;21.588;2023-02-15T20:38:06;146.90;;;57.90;;
57790;SDS011;43621;51.798;21.588;2023-02-15T20:42:16;147.50;;;57.80;;
57790;SDS011;43621;51.798;21.588;2023-02-15T20:46:19;115.90;;;49.20;;
57790;SDS011;43621;51.798;21.588;2023-02-15T20:50:22;104.60;;;45.50;;
57790;SDS011;43621;51.798;21.588;2023-02-15T20:54:29;100.20;;;42.70;;
57790;SDS011;43621;51.798;21.588;2023-02-15T20:58:34;228.90;;;67.90;;
57790;SDS011;43621;51.798;21.588;2023-02-15T21:02:37;145.50;;;52.10;;
57790;SDS011;43621;51.798;21.588;2023-02-15T21:06:40;175.70;;;56.90;;
57790;SDS011;43621;51.798;21.588;2023-02-15T21:10:43;124.80;;;47.50;;
57790;SDS011;43621;51.798;21.588;2023-02-15T21:14:48;137.60;;;52.10;;
57790;SDS011;43621;51.798;21.588;2023-02-15T21:18:51;133.60;;;52.20;;
57790;SDS011;43621;51.798;21.588;2023-02-15T21:22:53;122.80;;;50.40;;
57790;SDS011;43621;51.798;21.588;2023-02-15T21:26:57;114.30;;;47.50;;
57790;SDS011;43621;51.798;21.588;2023-02-15T21:31:04;108.70;;;46.00;;
57790;SDS011;43621;51.798;21.588;2023-02-15T21:35:15;118.20;;;48.70;;
57790;SDS011;43621;51.798;21.588;2023-02-15T21:39:23;112.30;;;45.10;;
57790;SDS011;43621;51.798;21.588;2023-02-15T21:43:26;116.80;;;48.60;;
57790;SDS011;43621;51.798;21.588;2023-02-15T21:47:47;125.40;;;51.90;;
57790;SDS011;43621;51.798;21.588;2023-02-15T21:51:51;132.00;;;50.70;;
57790;SDS011;43621;51.798;21.588;2023-02-15T21:56:16;120.90;;;50.20;;
57790;SDS011;43621;51.798;21.588;2023-02-15T22:00:21;133.60;;;52.40;;
57790;SDS011;43621;51.798;21.588;2023-02-15T22:04:26;114.80;;;47.60;;
57790;SDS011;43621;51.798;21.588;2023-02-15T22:08:29;109.50;;;46.30;;
57790;SDS011;43621;51.798;21.588;2023-02-15T22:12:31;104.60;;;44.10;;
57790;SDS011;43621;51.798;21.588;2023-02-15T22:16:33;110.90;;;48.60;;
57790;SDS011;43621;51.798;21.588;2023-02-15T22:20:35;99.50;;;43.20;;
57790;SDS011;43621;51.798;21.588;2023-02-15T22:24:37;93.40;;;43.10;;
57790;SDS011;43621;51.798;21.588;2023-02-15T22:28:39;95.40;;;42.50;;
57790;SDS011;43621;51.798;21.588;2023-02-15T22:32:42;97.30;;;42.30;;
57790;SDS011;43621;51.798;21.588;2023-02-15T22:36:44;100.90;;;41.50;;
57790;SDS011;43621;51.798;21.588;2023-02-15T22:40:47;105.20;;;42.40;;
57790;SDS011;43621;51.798;21.588;2023-02-15T22:44:51;97.80;;;41.20;;
57790;SDS011;43621;51.798;21.588;2023-02-15T22:48:55;148.90;;;51.80;;
57790;SDS011;43621;51.798;21.588;2023-02-15T22:53:00;176.70;;;52.90;;
57790;SDS011;43621;51.798;21.588;2023-02-15T22:57:03;107.30;;;44.70;;
57790;SDS011;43621;51.798;21.588;2023-02-15T23:01:07;105.70;;;44.60;;
57790;SDS011;43621;51.798;21.588;2023-02-15T23:05:25;121.80;;;50.60;;
57790;SDS011;43621;51.798;21.588;2023-02-15T23:09:29;121.30;;;49.80;;
57790;SDS011;43621;51.798;21.588;2023-02-15T23:13:31;124.60;;;52.90;;
57790;SDS011;43621;51.798;21.588;2023-02-15T23:17:34;127.20;;;51.20;;
57790;SDS011;43621;51.798;21.588;2023-02-15T23:21:35;128.00;;;53.60;;
57790;SDS011;43621;51.798;21.588;2023-02-15T23:25:38;127.10;;;54.20;;
57790;SDS011;43621;51.798;21.588;2023-02-15T23:29:40;139.10;;;55.40;;
57790;SDS011;43621;51.798;21.588;2023-02-15T23:33:42;122.60;;;48.40;;
57790;SDS011;43621;51.798;21.588;2023-02-15T23:37:45;109.80;;;46.90;;
57790;SDS011;43621;51.798;21.588;2023-02-15T23:41:47;110.60;;;46.30;;
57790;SDS011;43621;51.798;21.588;2023-02-15T23:45:49;131.90;;;48.40;;
57790;SDS011;43621;51.798;21.588;2023-02-15T23:49:51;118.30;;;48.90;;
57790;SDS011;43621;51.798;21.588;2023-02-15T23:53:52;115.90;;;48.20;;
57790;SDS011;43621;51.798;21.588;2023-02-15T23:57:54;119.20;;;48.50;;
